createdAt,value
2022-08-05T00:01:29.286Z,3.10
2022-08-05T00:04:02.163Z,3.00
2022-08-05T00:06:33.298Z,2.90
2022-08-05T00:09:01.065Z,3.45
2022-08-05T00:11:30.612Z,3.00
2022-08-05T00:14:12.683Z,3.47
2022-08-05T00:16:52.537Z,3.22
2022-08-05T00:19:25.118Z,2.95
2022-08-05T00:22:01.261Z,3.20
2022-08-05T00:24:30.715Z,4.03
2022-08-05T00:26:59.383Z,3.75
2022-08-05T00:29:27.616Z,3.40
2022-08-05T00:32:13.087Z,3.70
2022-08-05T00:35:05.103Z,3.40
2022-08-05T00:37:35.563Z,3.30
2022-08-05T00:40:28.363Z,3.00
2022-08-05T00:43:00.737Z,3.47
2022-08-05T00:45:37.862Z,3.60
2022-08-05T00:48:09.362Z,3.40
2022-08-05T00:50:37.395Z,3.15
2022-08-05T00:53:45.445Z,3.55
2022-08-05T00:55:51.473Z,3.90
2022-08-05T00:58:19.157Z,3.28
2022-08-05T01:00:47.802Z,3.92
2022-08-05T01:03:22.907Z,3.33
2022-08-05T01:05:51.435Z,3.45
2022-08-05T01:08:41.290Z,3.72
2022-08-05T01:11:22.504Z,3.53
2022-08-05T01:14:08.563Z,3.45
2022-08-05T01:16:54.581Z,3.17
2022-08-05T01:19:36.565Z,3.40
2022-08-05T01:22:40.620Z,3.42
2022-08-05T01:25:39.859Z,3.92
2022-08-05T01:28:16.815Z,3.15
2022-08-05T01:30:53.898Z,3.70
2022-08-05T01:33:29.535Z,3.30
2022-08-05T01:36:08.551Z,3.47
2022-08-05T01:38:40.973Z,2.92
2022-08-05T01:41:08.824Z,2.80
2022-08-05T01:43:38.344Z,3.70
2022-08-05T01:46:16.298Z,3.33
2022-08-05T01:48:55.663Z,3.25
2022-08-05T01:51:23.723Z,3.00
2022-08-05T01:53:57.273Z,5.85
2022-08-05T01:58:15.083Z,3.38
2022-08-05T01:59:23.046Z,3.38
2022-08-05T02:01:51.956Z,3.03
2022-08-05T02:04:24.047Z,3.40
2022-08-05T02:06:52.997Z,3.17
2022-08-05T02:09:20.463Z,3.72
2022-08-05T02:11:55.495Z,3.10
2022-08-05T02:14:53.189Z,3.03
2022-08-05T02:18:28.292Z,2.85
2022-08-05T02:20:22.933Z,3.00
2022-08-05T02:23:00.808Z,3.33
2022-08-05T02:25:49.303Z,3.53
2022-08-05T02:28:28.988Z,3.38
2022-08-05T02:31:02.184Z,4.15
2022-08-05T02:33:38.628Z,3.67
2022-08-05T02:36:14.596Z,5.22
2022-08-05T02:38:52.826Z,5.90
2022-08-05T02:41:22.921Z,5.45
2022-08-05T02:44:02.255Z,6.22
2022-08-05T02:46:34.433Z,7.50
2022-08-05T02:52:03.079Z,7.30
2022-08-05T02:54:35.999Z,7.88
2022-08-05T02:57:10.365Z,8.48
2022-08-05T02:59:55.554Z,8.75
2022-08-05T03:02:29.449Z,9.93
2022-08-05T03:04:58.154Z,10.23
2022-08-05T03:08:00.849Z,10.00
2022-08-05T03:10:22.019Z,11.02
2022-08-05T03:12:54.184Z,9.85
2022-08-05T03:15:23.753Z,12.52
2022-08-05T03:17:55.848Z,12.80
2022-08-05T03:20:23.576Z,14.98
2022-08-05T03:22:51.507Z,15.35
2022-08-05T03:25:32.462Z,12.35
2022-08-05T03:28:08.720Z,13.15
2022-08-05T03:30:36.715Z,13.03
2022-08-05T03:33:07.368Z,15.25
2022-08-05T03:35:41.005Z,13.07
2022-08-05T03:38:14.526Z,15.98
2022-08-05T03:40:45.322Z,15.77
2022-08-05T03:43:58.675Z,14.93
2022-08-05T03:46:02.703Z,15.88
2022-08-05T03:48:30.364Z,13.82
2022-08-05T03:52:37.866Z,15.15
2022-08-05T03:55:54.208Z,15.65
2022-08-05T03:57:34.184Z,17.13
2022-08-05T04:00:05.819Z,16.10
2022-08-05T04:02:38.825Z,16.10
2022-08-05T04:05:12.882Z,17.50
2022-08-05T04:07:51.385Z,17.23
2022-08-05T04:10:28.441Z,17.83
2022-08-05T04:12:59.218Z,18.20
2022-08-05T04:15:27.788Z,17.45
2022-08-05T04:18:03.115Z,18.45
2022-08-05T04:20:29.895Z,16.35
2022-08-05T04:22:58.948Z,15.80
2022-08-05T04:25:57.555Z,17.30
2022-08-05T04:28:13.104Z,16.80
2022-08-05T04:30:40.326Z,17.23
2022-08-05T04:33:10.029Z,17.33
2022-08-05T04:36:16.321Z,18.98
2022-08-05T04:38:39.516Z,16.20
2022-08-05T04:41:07.506Z,16.92
2022-08-05T04:43:37.104Z,17.38
2022-08-05T04:46:05.120Z,18.23
2022-08-05T04:48:32.232Z,16.75
2022-08-05T04:51:03.512Z,19.60
2022-08-05T04:53:38.795Z,19.90
2022-08-05T04:56:33.341Z,20.43
2022-08-05T04:58:54.575Z,19.58
2022-08-05T05:02:04.118Z,21.50
2022-08-05T05:04:08.484Z,23.45
2022-08-05T05:06:44.768Z,21.97
2022-08-05T05:09:17.540Z,20.75
2022-08-05T05:11:54.533Z,21.77
2022-08-05T05:14:28.044Z,21.45
2022-08-05T05:17:00.253Z,20.07
2022-08-05T05:19:36.405Z,21.90
2022-08-05T05:22:24.433Z,21.27
2022-08-05T05:24:57.067Z,23.50
2022-08-05T05:27:44.479Z,22.85
2022-08-05T05:30:29.358Z,24.38
2022-08-05T05:33:00.559Z,27.10
2022-08-05T05:35:31.628Z,28.40
2022-08-05T05:38:05.478Z,28.80
2022-08-05T05:40:32.913Z,27.30
2022-08-05T05:43:01.990Z,29.50
2022-08-05T05:45:29.421Z,28.98
2022-08-05T05:48:06.293Z,26.58
2022-08-05T05:50:42.529Z,30.13
2022-08-05T05:53:21.486Z,28.45
2022-08-05T05:55:51.769Z,28.85
2022-08-05T05:58:31.866Z,28.15
2022-08-05T06:01:04.905Z,30.40
2022-08-05T06:04:01.727Z,26.58
2022-08-05T06:06:27.759Z,27.65
2022-08-05T06:08:55.280Z,28.58
2022-08-05T06:11:22.267Z,28.45
2022-08-05T06:13:50.457Z,28.80
2022-08-05T06:16:30.748Z,30.48
2022-08-05T06:19:01.992Z,31.42
2022-08-05T06:21:35.945Z,30.70
2022-08-05T06:24:04.526Z,33.58
2022-08-05T06:26:33.956Z,35.00
2022-08-05T06:29:03.270Z,34.08
2022-08-05T06:31:33.670Z,29.20
2022-08-05T06:34:07.817Z,30.98
2022-08-05T06:36:53.544Z,30.80
2022-08-05T06:39:24.514Z,33.35
2022-08-05T06:41:54.115Z,32.88
2022-08-05T06:44:22.078Z,33.63
2022-08-05T06:46:50.881Z,33.67
2022-08-05T06:49:18.961Z,33.08
2022-08-05T06:52:05.643Z,32.17
2022-08-05T06:54:33.562Z,31.73
2022-08-05T06:57:47.201Z,31.73
2022-08-05T06:59:56.508Z,30.75
2022-08-05T07:02:24.948Z,33.33
2022-08-05T07:04:51.682Z,34.30
2022-08-05T07:07:24.082Z,34.03
2022-08-05T07:10:03.539Z,31.35
2022-08-05T07:12:49.523Z,34.40
2022-08-05T07:16:01.566Z,33.15
2022-08-05T07:18:29.100Z,33.28
2022-08-05T07:20:57.340Z,32.47
2022-08-05T07:23:26.472Z,31.00
2022-08-05T07:25:57.128Z,32.67
2022-08-05T07:28:25.127Z,33.83
2022-08-05T07:30:53.998Z,34.63
2022-08-05T07:33:37.032Z,35.47
2022-08-05T07:36:19.898Z,37.45
2022-08-05T07:38:47.712Z,31.50
2022-08-05T07:42:12.976Z,32.45
2022-08-05T07:44:18.693Z,30.17
2022-08-05T07:46:48.508Z,32.00
2022-08-05T07:49:18.185Z,31.95
2022-08-05T07:51:53.896Z,32.88
2022-08-05T07:54:31.598Z,36.03
2022-08-05T07:57:13.690Z,36.33
2022-08-05T07:59:46.945Z,36.90
2022-08-05T08:02:17.671Z,37.17
2022-08-05T08:04:46.817Z,33.88
2022-08-05T08:07:14.910Z,33.95
2022-08-05T08:09:42.089Z,30.52
2022-08-05T08:12:27.499Z,31.88
2022-08-05T08:14:56.014Z,33.33
2022-08-05T08:17:23.737Z,31.45
2022-08-05T08:20:23.383Z,31.73
2022-08-05T08:22:37.621Z,32.33
2022-08-05T08:25:16.462Z,31.90
2022-08-05T08:27:47.539Z,31.23
2022-08-05T08:30:32.623Z,32.60
2022-08-05T08:33:13.617Z,37.05
2022-08-05T08:35:53.860Z,40.17
2022-08-05T08:38:32.128Z,38.20
2022-08-05T08:41:06.272Z,39.13
2022-08-05T08:45:22.939Z,38.55
2022-08-05T08:46:27.365Z,33.43
2022-08-05T08:49:07.810Z,33.10
2022-08-05T08:52:03.049Z,35.47
2022-08-05T08:54:33.783Z,35.40
2022-08-05T08:57:06.029Z,35.97
2022-08-05T08:59:38.625Z,37.05
2022-08-05T09:02:08.917Z,33.20
2022-08-05T09:04:58.523Z,28.83
2022-08-05T09:07:28.645Z,29.70
2022-08-05T09:09:56.748Z,26.20
2022-08-05T09:12:27.817Z,26.67
2022-08-05T09:14:59.455Z,30.02
2022-08-05T09:17:43.157Z,19.15
2022-08-05T09:20:36.258Z,17.33
2022-08-05T09:23:19.220Z,17.35
2022-08-05T09:26:03.368Z,17.93
2022-08-05T09:28:33.602Z,19.23
2022-08-05T09:31:22.832Z,19.17
2022-08-05T09:34:01.228Z,17.60
2022-08-05T09:36:59.381Z,18.27
2022-08-05T09:39:39.453Z,17.17
2022-08-05T09:42:17.515Z,16.23
2022-08-05T09:44:52.795Z,16.20
2022-08-05T09:47:25.997Z,15.90
2022-08-05T09:50:02.262Z,15.63
2022-08-05T09:52:30.461Z,16.02
2022-08-05T09:55:56.586Z,15.23
2022-08-05T09:57:58.599Z,13.07
2022-08-05T10:00:26.385Z,12.50
2022-08-05T10:02:54.770Z,14.83
2022-08-05T10:05:27.597Z,13.90
2022-08-05T10:08:35.777Z,14.05
2022-08-05T10:10:44.812Z,13.47
2022-08-05T10:13:12.880Z,13.63
2022-08-05T10:15:41.944Z,14.77
2022-08-05T10:18:19.656Z,12.95
2022-08-05T10:20:49.581Z,14.27
2022-08-05T10:23:55.746Z,14.40
2022-08-05T10:26:15.817Z,12.40
2022-08-05T10:28:46.953Z,12.00
2022-08-05T10:32:48.096Z,10.18
2022-08-05T10:34:03.440Z,9.68
2022-08-05T10:36:30.741Z,8.83
2022-08-05T10:39:05.299Z,8.53
2022-08-05T10:41:49.761Z,8.90
2022-08-05T10:44:19.999Z,11.90
2022-08-05T10:46:55.474Z,9.57
2022-08-05T10:49:27.217Z,9.32
2022-08-05T10:52:02.505Z,8.13
2022-08-05T10:55:03.827Z,9.65
2022-08-05T10:57:33.675Z,8.45
2022-08-05T11:00:33.724Z,6.00
2022-08-05T11:03:25.169Z,5.63
2022-08-05T11:06:15.631Z,6.32
2022-08-05T11:09:13.046Z,6.00
2022-08-05T11:11:52.935Z,5.10
2022-08-05T11:15:00.964Z,4.57
2022-08-05T11:17:59.161Z,4.93
2022-08-05T11:20:47.577Z,4.20
2022-08-05T11:24:04.140Z,4.50
2022-08-05T11:26:28.886Z,4.97
2022-08-05T11:29:13.384Z,4.85
2022-08-05T11:31:58.537Z,5.30
2022-08-05T11:34:55.268Z,4.90
2022-08-05T11:38:30.194Z,4.75
2022-08-05T11:41:03.396Z,5.20
2022-08-05T11:44:07.090Z,4.90
2022-08-05T11:46:58.178Z,4.68
2022-08-05T11:49:33.964Z,4.68
2022-08-05T11:52:01.958Z,4.80
2022-08-05T11:54:40.365Z,4.53
2022-08-05T11:57:24.240Z,4.43
2022-08-05T11:59:52.931Z,4.30
2022-08-05T12:02:31.451Z,4.50
2022-08-05T12:05:07.306Z,3.97
2022-08-05T12:08:03.275Z,4.82
2022-08-05T12:10:42.997Z,4.60
2022-08-05T12:13:16.372Z,4.25
2022-08-05T12:15:45.229Z,4.00
2022-08-05T12:18:32.639Z,3.47
2022-08-05T12:21:30.321Z,4.00
2022-08-05T12:24:07.493Z,3.05
2022-08-05T12:26:39.218Z,3.40
2022-08-05T12:29:16.094Z,3.10
2022-08-05T12:31:53.492Z,3.15
2022-08-05T12:34:25.785Z,3.13
2022-08-05T12:36:54.510Z,3.30
2022-08-05T12:39:23.695Z,3.30
2022-08-05T12:41:59.664Z,3.25
2022-08-05T12:44:33.175Z,3.10
2022-08-05T12:47:02.422Z,3.47
2022-08-05T12:50:04.720Z,3.58
2022-08-05T12:52:41.704Z,3.60
2022-08-05T12:55:32.874Z,3.80
2022-08-05T12:58:38.393Z,3.53
2022-08-05T13:02:00.182Z,3.42
2022-08-05T13:03:42.526Z,5.15
2022-08-05T13:06:15.905Z,5.20
2022-08-05T13:08:46.093Z,3.55
2022-08-05T13:12:02.876Z,3.28
2022-08-05T13:14:24.755Z,3.45
2022-08-05T13:17:03.076Z,3.53
2022-08-05T13:19:50.999Z,2.92
2022-08-05T13:22:27.693Z,3.00
2022-08-05T13:24:57.911Z,3.38
2022-08-05T13:27:40.230Z,3.47
2022-08-05T13:30:35.314Z,3.53
2022-08-05T13:32:57.274Z,4.32
2022-08-05T13:35:31.504Z,4.13
2022-08-05T13:38:14.543Z,3.95
2022-08-05T13:40:55.310Z,3.92
2022-08-05T13:43:22.494Z,4.18
2022-08-05T13:45:49.276Z,4.20
2022-08-05T13:48:57.409Z,4.20
2022-08-05T13:51:13.412Z,3.65
2022-08-05T13:53:48.057Z,4.28
2022-08-05T13:56:18.782Z,3.85
2022-08-05T13:58:53.081Z,4.25
2022-08-05T14:01:25.885Z,4.00
2022-08-05T14:04:22.020Z,4.00
2022-08-05T14:06:58.852Z,3.97
2022-08-05T14:09:46.221Z,3.40
2022-08-05T14:12:18.350Z,3.70
2022-08-05T14:15:00.184Z,3.70
2022-08-05T14:17:28.241Z,3.50
2022-08-05T14:20:01.019Z,3.90
2022-08-05T14:22:30.188Z,4.18
2022-08-05T14:24:57.354Z,3.80
2022-08-05T14:27:24.140Z,3.95
2022-08-05T14:29:55.292Z,3.97
2022-08-05T14:32:27.847Z,3.97
2022-08-05T14:34:54.785Z,3.88
2022-08-05T14:37:45.632Z,3.75
2022-08-05T14:40:14.200Z,3.22
2022-08-05T14:42:43.448Z,3.55
2022-08-05T14:45:10.519Z,3.97
2022-08-05T14:48:03.747Z,3.10
2022-08-05T14:50:25.364Z,2.55
2022-08-05T14:52:58.501Z,3.08
2022-08-05T14:55:38.654Z,3.33
2022-08-05T14:58:11.857Z,3.65
2022-08-05T15:00:59.717Z,4.10
2022-08-05T15:03:33.322Z,3.58
2022-08-05T15:06:13.588Z,3.00
2022-08-05T15:08:59.170Z,3.13
2022-08-05T15:11:51.611Z,1.95
2022-08-05T15:14:34.546Z,2.15
2022-08-05T15:17:04.769Z,1.70
2022-08-05T15:19:32.134Z,2.15
2022-08-05T15:22:01.276Z,2.20
2022-08-05T15:24:28.887Z,2.05
2022-08-05T15:26:56.043Z,2.10
2022-08-05T15:29:23.915Z,2.40
2022-08-05T15:31:57.576Z,2.05
2022-08-05T15:34:33.108Z,2.35
2022-08-05T15:37:06.106Z,2.00
2022-08-05T15:40:58.762Z,2.00
2022-08-05T15:42:54.521Z,3.38
2022-08-05T15:45:11.943Z,3.25
2022-08-05T15:47:39.761Z,2.22
2022-08-05T15:50:08.025Z,2.58
2022-08-05T15:52:53.048Z,2.95
2022-08-05T15:55:24.650Z,5.47
2022-08-05T15:58:16.792Z,2.67
2022-08-05T16:00:50.854Z,3.05
2022-08-05T16:03:32.835Z,3.80
2022-08-05T16:06:00.827Z,4.25
2022-08-05T16:08:30.397Z,4.28
2022-08-05T16:10:58.203Z,4.50
2022-08-05T16:13:32.058Z,4.80
2022-08-05T16:16:01.634Z,4.43
2022-08-05T16:18:30.691Z,3.70
2022-08-05T16:20:58.542Z,3.95
2022-08-05T16:23:25.494Z,3.65
2022-08-05T16:26:07.614Z,2.75
2022-08-05T16:28:36.559Z,2.65
2022-08-05T16:31:08.541Z,4.00
2022-08-05T16:33:41.604Z,3.85
2022-08-05T16:36:09.123Z,2.90
2022-08-05T16:38:35.995Z,2.28
2022-08-05T16:42:12.142Z,1.95
2022-08-05T16:43:56.138Z,1.65
2022-08-05T16:46:24.363Z,3.05
2022-08-05T16:48:51.469Z,2.70
2022-08-05T16:51:18.832Z,3.72
2022-08-05T16:54:03.279Z,2.33
2022-08-05T16:56:36.357Z,2.30
2022-08-05T16:59:08.525Z,2.25
2022-08-05T17:01:53.709Z,2.50
2022-08-05T17:04:27.836Z,1.90
2022-08-05T17:06:57.017Z,1.80
2022-08-05T17:09:29.599Z,3.22
2022-08-05T17:11:59.891Z,4.30
2022-08-05T17:14:37.768Z,2.03
2022-08-05T17:17:14.628Z,3.05
2022-08-05T17:19:45.328Z,4.03
2022-08-05T17:22:17.885Z,4.93
2022-08-05T17:24:57.715Z,5.07
2022-08-05T17:27:33.581Z,4.75
2022-08-05T17:30:02.514Z,3.72
2022-08-05T17:32:29.876Z,3.42
2022-08-05T17:34:58.246Z,3.78
2022-08-05T17:37:39.587Z,3.80
2022-08-05T17:40:12.459Z,4.57
2022-08-05T17:42:41.725Z,4.18
2022-08-05T17:45:20.612Z,3.50
2022-08-05T17:47:53.578Z,2.78
2022-08-05T17:50:28.077Z,2.70
2022-08-05T17:53:00.367Z,1.67
2022-08-05T17:55:38.255Z,1.90
2022-08-05T17:58:12.888Z,1.48
2022-08-05T18:00:47.892Z,1.52
2022-08-05T18:06:11.138Z,1.30
2022-08-05T18:08:40.625Z,1.40
2022-08-05T18:11:24.473Z,1.10
2022-08-05T18:13:59.764Z,1.63
2022-08-05T18:16:27.127Z,1.40
2022-08-05T18:18:53.896Z,1.10
2022-08-05T18:21:22.940Z,1.30
2022-08-05T18:23:54.113Z,1.20
2022-08-05T18:26:29.215Z,1.15
2022-08-05T18:28:58.906Z,1.35
2022-08-05T18:31:33.768Z,1.30
2022-08-05T18:34:03.450Z,1.30
2022-08-05T18:36:35.262Z,1.40
2022-08-05T18:39:03.256Z,1.42
2022-08-05T18:41:56.854Z,3.00
2022-08-05T18:44:33.077Z,3.33
2022-08-05T18:47:03.748Z,3.17
2022-08-05T18:49:58.172Z,2.45
2022-08-05T18:52:33.704Z,3.30
2022-08-05T18:55:05.972Z,2.30
2022-08-05T18:57:49.935Z,1.98
2022-08-05T19:00:25.013Z,3.05
2022-08-05T19:02:55.143Z,4.50
2022-08-05T19:06:05.851Z,4.43
2022-08-05T19:08:13.768Z,3.95
2022-08-05T19:10:42.525Z,4.23
2022-08-05T19:13:12.378Z,4.93
2022-08-05T19:16:00.216Z,4.72
2022-08-05T19:18:30.254Z,3.78
2022-08-05T19:20:59.507Z,3.38
2022-08-05T19:24:05.861Z,2.90
2022-08-05T19:26:14.517Z,2.50
2022-08-05T19:28:44.423Z,4.78
2022-08-05T19:31:13.675Z,3.63
2022-08-05T19:33:48.769Z,4.13
2022-08-05T19:36:26.990Z,3.42
2022-08-05T19:38:58.728Z,3.53
2022-08-05T19:41:58.093Z,3.77
2022-08-05T19:44:14.196Z,3.03
2022-08-05T19:46:41.667Z,3.80
2022-08-05T19:49:12.540Z,3.60
2022-08-05T19:52:13.102Z,3.50
2022-08-05T19:54:32.763Z,4.50
2022-08-05T19:57:09.142Z,4.87
2022-08-05T19:59:55.807Z,5.90
2022-08-05T20:02:26.319Z,5.90
2022-08-05T20:04:55.417Z,6.38
2022-08-05T20:07:46.566Z,5.40
2022-08-05T20:10:13.899Z,6.00
2022-08-05T20:12:46.172Z,8.17
2022-08-05T20:15:48.678Z,7.80
2022-08-05T20:18:04.387Z,6.00
2022-08-05T20:20:38.119Z,4.70
2022-08-05T20:23:05.906Z,5.07
2022-08-05T20:25:40.101Z,5.43
2022-08-05T20:28:07.956Z,5.03
2022-08-05T20:30:41.086Z,5.07
2022-08-05T20:33:08.793Z,5.37
2022-08-05T20:35:40.324Z,4.73
2022-08-05T20:38:20.234Z,4.47
2022-08-05T20:40:55.522Z,5.47
2022-08-05T20:43:57.485Z,5.23
2022-08-05T20:46:18.376Z,5.33
2022-08-05T20:48:52.374Z,5.77
2022-08-05T20:51:19.585Z,4.73
2022-08-05T20:53:56.262Z,5.63
2022-08-05T20:56:31.025Z,4.30
2022-08-05T20:59:14.217Z,4.70
2022-08-05T21:01:46.960Z,6.70
2022-08-05T21:04:14.006Z,7.20
2022-08-05T21:06:45.063Z,6.30
2022-08-05T21:09:16.173Z,5.93
2022-08-05T21:12:06.870Z,4.30
2022-08-05T21:14:32.027Z,3.20
2022-08-05T21:17:03.129Z,2.90
2022-08-05T21:19:46.598Z,2.40
2022-08-05T21:22:18.406Z,2.30
2022-08-05T21:24:48.840Z,3.50
2022-08-05T21:27:16.609Z,3.20
2022-08-05T21:29:43.432Z,2.80
2022-08-05T21:32:17.192Z,2.77
2022-08-05T21:35:06.923Z,3.90
2022-08-05T21:37:35.085Z,4.43
2022-08-05T21:40:13.044Z,4.50
2022-08-05T21:42:44.686Z,4.07
2022-08-05T21:45:24.633Z,3.80
2022-08-05T21:47:55.797Z,3.83
2022-08-05T21:50:24.718Z,3.60
2022-08-05T21:52:52.062Z,4.00
2022-08-05T21:55:42.973Z,4.03
2022-08-05T21:58:06.954Z,3.67
2022-08-05T22:00:37.284Z,2.67
2022-08-05T22:03:04.077Z,2.57
2022-08-05T22:05:48.113Z,2.77
2022-08-05T22:08:22.301Z,2.63
2022-08-05T22:10:51.521Z,4.20
2022-08-05T22:14:19.826Z,4.13
2022-08-05T22:16:26.054Z,5.23
2022-08-05T22:18:58.582Z,4.30
2022-08-05T22:21:25.827Z,4.70
2022-08-05T22:24:39.588Z,4.03
2022-08-05T22:27:26.169Z,3.77
2022-08-05T22:30:15.089Z,3.70
2022-08-05T22:32:44.404Z,2.80
2022-08-05T22:35:13.284Z,3.07
2022-08-05T22:37:59.381Z,3.50
2022-08-05T22:40:26.999Z,3.63
2022-08-05T22:42:58.388Z,3.63
2022-08-05T22:45:26.487Z,3.07
2022-08-05T22:47:55.314Z,3.07
2022-08-05T22:50:26.722Z,3.80
2022-08-05T22:52:55.213Z,3.00
2022-08-05T22:55:23.400Z,2.60
2022-08-05T22:57:53.861Z,2.60
2022-08-05T23:00:23.744Z,3.00
2022-08-05T23:02:53.129Z,2.20
2022-08-05T23:05:22.224Z,2.40
2022-08-05T23:07:50.461Z,1.93
2022-08-05T23:10:20.236Z,2.10
2022-08-05T23:12:51.554Z,2.30
2022-08-05T23:15:29.475Z,3.03
2022-08-05T23:18:03.602Z,3.17
2022-08-05T23:20:37.225Z,3.10
2022-08-05T23:23:08.047Z,2.57
2022-08-05T23:25:53.524Z,2.90
2022-08-05T23:28:27.648Z,2.80
2022-08-05T23:30:56.303Z,2.60
2022-08-05T23:34:05.690Z,2.40
2022-08-05T23:36:40.119Z,2.37
2022-08-05T23:39:17.227Z,2.17
2022-08-05T23:41:51.299Z,2.30
2022-08-05T23:44:19.823Z,2.50
2022-08-05T23:46:52.455Z,2.40
2022-08-05T23:49:23.922Z,2.47
2022-08-05T23:52:19.318Z,2.10
2022-08-05T23:54:49.314Z,2.20
2022-08-05T23:57:16.408Z,2.40
